createdAt,value
2019-05-06T00:00:53.000Z,1019.66
2019-05-06T00:01:53.000Z,1019.65
2019-05-06T00:02:53.000Z,1019.66
2019-05-06T00:03:53.000Z,1019.65
2019-05-06T00:04:53.000Z,1019.66
2019-05-06T00:05:54.000Z,1019.65
2019-05-06T00:06:53.000Z,1019.64
2019-05-06T00:07:54.000Z,1019.62
2019-05-06T00:08:53.000Z,1019.65
2019-05-06T00:09:53.000Z,1019.64
2019-05-06T00:10:53.000Z,1019.64
2019-05-06T00:11:53.000Z,1019.63
2019-05-06T00:12:53.000Z,1019.64
2019-05-06T00:13:53.000Z,1019.67
2019-05-06T00:14:53.000Z,1019.67
2019-05-06T00:15:53.000Z,1019.70
2019-05-06T00:16:53.000Z,1019.69
2019-05-06T00:17:53.000Z,1019.66
2019-05-06T00:18:53.000Z,1019.70
2019-05-06T00:19:53.000Z,1019.68
2019-05-06T00:20:53.000Z,1019.68
2019-05-06T00:21:53.000Z,1019.67
2019-05-06T00:22:53.000Z,1019.68
2019-05-06T00:23:53.000Z,1019.68
2019-05-06T00:24:53.000Z,1019.73
2019-05-06T00:25:53.000Z,1019.71
2019-05-06T00:26:53.000Z,1019.70
2019-05-06T00:27:53.000Z,1019.70
2019-05-06T00:28:53.000Z,1019.68
2019-05-06T00:29:53.000Z,1019.72
2019-05-06T00:30:53.000Z,1019.71
2019-05-06T00:31:53.000Z,1019.68
2019-05-06T00:32:53.000Z,1019.69
2019-05-06T00:33:53.000Z,1019.67
2019-05-06T00:34:53.000Z,1019.70
2019-05-06T00:35:53.000Z,1019.71
2019-05-06T00:36:53.000Z,1019.68
2019-05-06T00:37:53.000Z,1019.72
2019-05-06T00:38:53.000Z,1019.70
2019-05-06T00:39:53.000Z,1019.67
2019-05-06T00:40:53.000Z,1019.68
2019-05-06T00:41:53.000Z,1019.66
2019-05-06T00:42:53.000Z,1019.67
2019-05-06T00:43:53.000Z,1019.67
2019-05-06T00:44:53.000Z,1019.71
2019-05-06T00:45:53.000Z,1019.69
2019-05-06T00:46:53.000Z,1019.73
2019-05-06T00:47:53.000Z,1019.75
2019-05-06T00:48:53.000Z,1019.75
2019-05-06T00:49:55.000Z,1019.77
2019-05-06T00:50:53.000Z,1019.77
2019-05-06T00:51:53.000Z,1019.73
2019-05-06T00:52:53.000Z,1019.73
2019-05-06T00:53:53.000Z,1019.77
2019-05-06T00:54:53.000Z,1019.76
2019-05-06T00:55:53.000Z,1019.72
2019-05-06T00:56:53.000Z,1019.75
2019-05-06T00:57:53.000Z,1019.77
2019-05-06T00:58:53.000Z,1019.77
2019-05-06T00:59:53.000Z,1019.77
2019-05-06T01:00:53.000Z,1019.79
2019-05-06T01:01:53.000Z,1019.80
2019-05-06T01:02:53.000Z,1019.79
2019-05-06T01:03:53.000Z,1019.77
2019-05-06T01:04:53.000Z,1019.77
2019-05-06T01:05:53.000Z,1019.77
2019-05-06T01:06:53.000Z,1019.79
2019-05-06T01:07:53.000Z,1019.81
2019-05-06T01:08:53.000Z,1019.80
2019-05-06T01:09:53.000Z,1019.82
2019-05-06T01:10:53.000Z,1019.80
2019-05-06T01:11:53.000Z,1019.86
2019-05-06T01:12:53.000Z,1019.84
2019-05-06T01:13:53.000Z,1019.83
2019-05-06T01:14:53.000Z,1019.82
2019-05-06T01:15:53.000Z,1019.84
2019-05-06T01:16:53.000Z,1019.85
2019-05-06T01:17:53.000Z,1019.86
2019-05-06T01:18:53.000Z,1019.89
2019-05-06T01:19:53.000Z,1019.87
2019-05-06T01:20:53.000Z,1019.90
2019-05-06T01:21:53.000Z,1019.87
2019-05-06T01:22:53.000Z,1019.92
2019-05-06T01:23:53.000Z,1019.90
2019-05-06T01:24:53.000Z,1019.89
2019-05-06T01:25:53.000Z,1019.91
2019-05-06T01:26:53.000Z,1019.93
2019-05-06T01:27:53.000Z,1019.93
2019-05-06T01:28:53.000Z,1019.92
2019-05-06T01:29:53.000Z,1019.93
2019-05-06T01:30:53.000Z,1019.91
2019-05-06T01:31:53.000Z,1019.93
2019-05-06T01:32:54.000Z,1019.94
2019-05-06T01:33:53.000Z,1019.95
2019-05-06T01:34:53.000Z,1019.98
2019-05-06T01:35:53.000Z,1019.94
2019-05-06T01:36:53.000Z,1019.97
2019-05-06T01:37:53.000Z,1019.98
2019-05-06T01:38:53.000Z,1019.97
2019-05-06T01:39:53.000Z,1019.97
2019-05-06T01:40:53.000Z,1019.99
2019-05-06T01:41:53.000Z,1019.97
2019-05-06T01:42:53.000Z,1019.96
2019-05-06T01:43:53.000Z,1019.97
2019-05-06T01:44:53.000Z,1020.00
2019-05-06T01:45:53.000Z,1020.03
2019-05-06T01:46:53.000Z,1019.98
2019-05-06T01:47:53.000Z,1020.03
2019-05-06T01:48:53.000Z,1019.99
2019-05-06T01:49:53.000Z,1020.00
2019-05-06T01:50:53.000Z,1020.02
2019-05-06T01:51:53.000Z,1020.04
2019-05-06T01:52:53.000Z,1020.00
2019-05-06T01:53:53.000Z,1020.01
2019-05-06T01:54:54.000Z,1020.03
2019-05-06T01:55:53.000Z,1020.01
2019-05-06T01:56:53.000Z,1020.04
2019-05-06T01:57:53.000Z,1020.05
2019-05-06T01:58:53.000Z,1020.03
2019-05-06T01:59:53.000Z,1020.03
2019-05-06T02:00:53.000Z,1020.01
2019-05-06T02:01:53.000Z,1020.01
2019-05-06T02:02:53.000Z,1020.01
2019-05-06T02:03:53.000Z,1020.02
2019-05-06T02:04:53.000Z,1020.03
2019-05-06T02:05:53.000Z,1020.06
2019-05-06T02:06:53.000Z,1020.03
2019-05-06T02:07:53.000Z,1020.04
2019-05-06T02:08:53.000Z,1020.03
2019-05-06T02:09:53.000Z,1020.06
2019-05-06T02:10:53.000Z,1020.08
2019-05-06T02:11:53.000Z,1020.06
2019-05-06T02:12:52.000Z,1020.04
2019-05-06T02:13:52.000Z,1020.05
2019-05-06T02:14:52.000Z,1020.08
2019-05-06T02:15:52.000Z,1020.09
2019-05-06T02:16:52.000Z,1020.08
2019-05-06T02:17:52.000Z,1020.07
2019-05-06T02:18:52.000Z,1020.13
2019-05-06T02:19:52.000Z,1020.10
2019-05-06T02:20:52.000Z,1020.12
2019-05-06T02:21:52.000Z,1020.17
2019-05-06T02:22:52.000Z,1020.11
2019-05-06T02:23:52.000Z,1020.13
2019-05-06T02:24:52.000Z,1020.13
2019-05-06T02:25:52.000Z,1020.16
2019-05-06T02:26:52.000Z,1020.15
2019-05-06T02:27:52.000Z,1020.17
2019-05-06T02:28:52.000Z,1020.17
2019-05-06T02:29:52.000Z,1020.14
2019-05-06T02:30:52.000Z,1020.19
2019-05-06T02:31:52.000Z,1020.18
2019-05-06T02:32:52.000Z,1020.16
2019-05-06T02:33:52.000Z,1020.19
2019-05-06T02:34:52.000Z,1020.17
2019-05-06T02:35:52.000Z,1020.20
2019-05-06T02:36:53.000Z,1020.14
2019-05-06T02:37:52.000Z,1020.19
2019-05-06T02:38:52.000Z,1020.20
2019-05-06T02:39:52.000Z,1020.18
2019-05-06T02:40:52.000Z,1020.19
2019-05-06T02:41:52.000Z,1020.16
2019-05-06T02:42:52.000Z,1020.19
2019-05-06T02:43:52.000Z,1020.17
2019-05-06T02:44:52.000Z,1020.16
2019-05-06T02:45:52.000Z,1020.15
2019-05-06T02:46:52.000Z,1020.13
2019-05-06T02:47:52.000Z,1020.08
2019-05-06T02:48:52.000Z,1020.15
2019-05-06T02:49:52.000Z,1020.12
2019-05-06T02:50:52.000Z,1020.10
2019-05-06T02:51:52.000Z,1020.12
2019-05-06T02:52:52.000Z,1020.11
2019-05-06T02:53:52.000Z,1020.11
2019-05-06T02:54:52.000Z,1020.12
2019-05-06T02:55:52.000Z,1020.12
2019-05-06T02:56:52.000Z,1020.11
2019-05-06T02:57:52.000Z,1020.12
2019-05-06T02:58:52.000Z,1020.10
2019-05-06T02:59:52.000Z,1020.08
2019-05-06T03:00:52.000Z,1020.11
2019-05-06T03:01:52.000Z,1020.08
2019-05-06T03:02:52.000Z,1020.13
2019-05-06T03:03:52.000Z,1020.10
2019-05-06T03:04:52.000Z,1020.13
2019-05-06T03:05:52.000Z,1020.15
2019-05-06T03:06:52.000Z,1020.15
2019-05-06T03:07:52.000Z,1020.14
2019-05-06T03:08:52.000Z,1020.17
2019-05-06T03:09:52.000Z,1020.16
2019-05-06T03:10:52.000Z,1020.19
2019-05-06T03:11:52.000Z,1020.19
2019-05-06T03:12:52.000Z,1020.19
2019-05-06T03:13:52.000Z,1020.23
2019-05-06T03:14:52.000Z,1020.18
2019-05-06T03:15:52.000Z,1020.22
2019-05-06T03:16:52.000Z,1020.21
2019-05-06T03:17:52.000Z,1020.25
2019-05-06T03:18:52.000Z,1020.22
2019-05-06T03:19:52.000Z,1020.19
2019-05-06T03:20:52.000Z,1020.21
2019-05-06T03:21:52.000Z,1020.20
2019-05-06T03:22:52.000Z,1020.20
2019-05-06T03:23:52.000Z,1020.22
2019-05-06T03:24:52.000Z,1020.24
2019-05-06T03:25:52.000Z,1020.22
2019-05-06T03:26:52.000Z,1020.24
2019-05-06T03:27:52.000Z,1020.22
2019-05-06T03:28:52.000Z,1020.25
2019-05-06T03:29:52.000Z,1020.25
2019-05-06T03:30:52.000Z,1020.22
2019-05-06T03:31:52.000Z,1020.24
2019-05-06T03:32:52.000Z,1020.29
2019-05-06T03:33:52.000Z,1020.26
2019-05-06T03:34:52.000Z,1020.26
2019-05-06T03:35:52.000Z,1020.30
2019-05-06T03:36:52.000Z,1020.28
2019-05-06T03:37:52.000Z,1020.28
2019-05-06T03:38:52.000Z,1020.26
2019-05-06T03:39:52.000Z,1020.27
2019-05-06T03:40:52.000Z,1020.28
2019-05-06T03:41:53.000Z,1020.27
2019-05-06T03:42:52.000Z,1020.25
2019-05-06T03:43:52.000Z,1020.26
2019-05-06T03:44:52.000Z,1020.26
2019-05-06T03:45:52.000Z,1020.29
2019-05-06T03:46:52.000Z,1020.29
2019-05-06T03:47:52.000Z,1020.24
2019-05-06T03:48:52.000Z,1020.24
2019-05-06T03:49:52.000Z,1020.26
2019-05-06T03:50:52.000Z,1020.28
2019-05-06T03:51:52.000Z,1020.28
2019-05-06T03:52:52.000Z,1020.27
2019-05-06T03:53:52.000Z,1020.27
2019-05-06T03:54:52.000Z,1020.33
2019-05-06T03:55:52.000Z,1020.30
2019-05-06T03:56:52.000Z,1020.32
2019-05-06T03:57:52.000Z,1020.34
2019-05-06T03:58:52.000Z,1020.36
2019-05-06T03:59:52.000Z,1020.36
2019-05-06T04:00:52.000Z,1020.35
2019-05-06T04:01:52.000Z,1020.41
2019-05-06T04:02:53.000Z,1020.40
2019-05-06T04:03:52.000Z,1020.40
2019-05-06T04:04:52.000Z,1020.40
2019-05-06T04:05:52.000Z,1020.41
2019-05-06T04:06:52.000Z,1020.42
2019-05-06T04:07:52.000Z,1020.41
2019-05-06T04:08:52.000Z,1020.45
2019-05-06T04:09:52.000Z,1020.46
2019-05-06T04:10:52.000Z,1020.44
2019-05-06T04:11:52.000Z,1020.48
2019-05-06T04:12:52.000Z,1020.47
2019-05-06T04:13:52.000Z,1020.49
2019-05-06T04:14:52.000Z,1020.48
2019-05-06T04:15:52.000Z,1020.49
2019-05-06T04:16:52.000Z,1020.50
2019-05-06T04:17:52.000Z,1020.53
2019-05-06T04:18:52.000Z,1020.51
2019-05-06T04:19:52.000Z,1020.54
2019-05-06T04:20:52.000Z,1020.51
2019-05-06T04:21:52.000Z,1020.52
2019-05-06T04:22:52.000Z,1020.52
2019-05-06T04:23:52.000Z,1020.53
2019-05-06T04:24:52.000Z,1020.55
2019-05-06T04:25:52.000Z,1020.57
2019-05-06T04:26:52.000Z,1020.58
2019-05-06T04:27:52.000Z,1020.60
2019-05-06T04:28:52.000Z,1020.62
2019-05-06T04:29:52.000Z,1020.62
2019-05-06T04:30:52.000Z,1020.65
2019-05-06T04:31:52.000Z,1020.67
2019-05-06T04:32:52.000Z,1020.67
2019-05-06T04:33:52.000Z,1020.69
2019-05-06T04:34:52.000Z,1020.69
2019-05-06T04:35:52.000Z,1020.70
2019-05-06T04:36:52.000Z,1020.69
2019-05-06T04:37:52.000Z,1020.72
2019-05-06T04:38:52.000Z,1020.76
2019-05-06T04:39:52.000Z,1020.73
2019-05-06T04:40:52.000Z,1020.76
2019-05-06T04:41:52.000Z,1020.77
2019-05-06T04:42:52.000Z,1020.81
2019-05-06T04:43:52.000Z,1020.84
2019-05-06T04:44:52.000Z,1020.82
2019-05-06T04:45:52.000Z,1020.80
2019-05-06T04:46:52.000Z,1020.80
2019-05-06T04:47:52.000Z,1020.87
2019-05-06T04:48:52.000Z,1020.83
2019-05-06T04:49:52.000Z,1020.85
2019-05-06T04:50:52.000Z,1020.89
2019-05-06T04:51:52.000Z,1020.90
2019-05-06T04:52:52.000Z,1020.86
2019-05-06T04:53:52.000Z,1020.89
2019-05-06T04:54:52.000Z,1020.91
2019-05-06T04:55:52.000Z,1020.87
2019-05-06T04:56:52.000Z,1020.88
2019-05-06T04:57:52.000Z,1020.88
2019-05-06T04:58:52.000Z,1020.85
2019-05-06T04:59:52.000Z,1020.88
2019-05-06T05:00:52.000Z,1020.85
2019-05-06T05:01:52.000Z,1020.84
2019-05-06T05:02:52.000Z,1020.84
2019-05-06T05:03:52.000Z,1020.89
2019-05-06T05:04:52.000Z,1020.89
2019-05-06T05:05:52.000Z,1020.88
2019-05-06T05:06:52.000Z,1020.88
2019-05-06T05:07:53.000Z,1020.92
2019-05-06T05:08:52.000Z,1020.91
2019-05-06T05:09:52.000Z,1020.93
2019-05-06T05:10:52.000Z,1020.98
2019-05-06T05:11:52.000Z,1021.00
2019-05-06T05:12:52.000Z,1020.97
2019-05-06T05:13:52.000Z,1020.99
2019-05-06T05:14:52.000Z,1021.01
2019-05-06T05:15:52.000Z,1021.01
2019-05-06T05:16:52.000Z,1021.05
2019-05-06T05:17:52.000Z,1021.10
2019-05-06T05:18:52.000Z,1021.06
2019-05-06T05:19:52.000Z,1021.10
2019-05-06T05:20:52.000Z,1021.07
2019-05-06T05:21:52.000Z,1021.10
2019-05-06T05:22:52.000Z,1021.12
2019-05-06T05:23:52.000Z,1021.15
2019-05-06T05:24:52.000Z,1021.16
2019-05-06T05:25:52.000Z,1021.21
2019-05-06T05:26:52.000Z,1021.21
2019-05-06T05:27:52.000Z,1021.23
2019-05-06T05:28:52.000Z,1021.24
2019-05-06T05:29:53.000Z,1021.23
2019-05-06T05:30:52.000Z,1021.26
2019-05-06T05:31:52.000Z,1021.27
2019-05-06T05:32:52.000Z,1021.27
2019-05-06T05:33:52.000Z,1021.32
2019-05-06T05:34:52.000Z,1021.33
2019-05-06T05:35:52.000Z,1021.30
2019-05-06T05:36:52.000Z,1021.35
2019-05-06T05:37:52.000Z,1021.35
2019-05-06T05:38:52.000Z,1021.38
2019-05-06T05:39:52.000Z,1021.41
2019-05-06T05:40:52.000Z,1021.36
2019-05-06T05:41:52.000Z,1021.34
2019-05-06T05:42:52.000Z,1021.40
2019-05-06T05:43:52.000Z,1021.42
2019-05-06T05:44:52.000Z,1021.45
2019-05-06T05:45:52.000Z,1021.42
2019-05-06T05:46:52.000Z,1021.44
2019-05-06T05:47:52.000Z,1021.41
2019-05-06T05:48:52.000Z,1021.40
2019-05-06T05:49:52.000Z,1021.41
2019-05-06T05:50:52.000Z,1021.42
2019-05-06T05:51:52.000Z,1021.41
2019-05-06T05:52:52.000Z,1021.41
2019-05-06T05:53:52.000Z,1021.42
2019-05-06T05:54:52.000Z,1021.42
2019-05-06T05:55:52.000Z,1021.42
2019-05-06T05:56:52.000Z,1021.39
2019-05-06T05:57:52.000Z,1021.40
2019-05-06T05:58:52.000Z,1021.45
2019-05-06T05:59:52.000Z,1021.42
2019-05-06T06:00:52.000Z,1021.42
2019-05-06T06:01:52.000Z,1021.41
2019-05-06T06:02:52.000Z,1021.45
2019-05-06T06:03:52.000Z,1021.44
2019-05-06T06:04:52.000Z,1021.51
2019-05-06T06:05:52.000Z,1021.46
2019-05-06T06:06:52.000Z,1021.48
2019-05-06T06:07:52.000Z,1021.46
2019-05-06T06:08:52.000Z,1021.47
2019-05-06T06:09:52.000Z,1021.50
2019-05-06T06:10:52.000Z,1021.51
2019-05-06T06:11:53.000Z,1021.44
2019-05-06T06:12:52.000Z,1021.46
2019-05-06T06:13:52.000Z,1021.48
2019-05-06T06:14:52.000Z,1021.48
2019-05-06T06:15:52.000Z,1021.46
2019-05-06T06:16:52.000Z,1021.49
2019-05-06T06:17:52.000Z,1021.52
2019-05-06T06:18:52.000Z,1021.51
2019-05-06T06:19:52.000Z,1021.55
2019-05-06T06:20:52.000Z,1021.55
2019-05-06T06:21:52.000Z,1021.58
2019-05-06T06:22:52.000Z,1021.57
2019-05-06T06:23:52.000Z,1021.57
2019-05-06T06:24:52.000Z,1021.58
2019-05-06T06:25:52.000Z,1021.54
2019-05-06T06:26:52.000Z,1021.59
2019-05-06T06:27:52.000Z,1021.53
2019-05-06T06:28:52.000Z,1021.54
2019-05-06T06:29:52.000Z,1021.57
2019-05-06T06:30:52.000Z,1021.56
2019-05-06T06:31:52.000Z,1021.59
2019-05-06T06:32:52.000Z,1021.60
2019-05-06T06:33:52.000Z,1021.53
2019-05-06T06:34:52.000Z,1021.53
2019-05-06T06:35:52.000Z,1021.55
2019-05-06T06:36:52.000Z,1021.52
2019-05-06T06:37:52.000Z,1021.56
2019-05-06T06:38:52.000Z,1021.55
2019-05-06T06:39:52.000Z,1021.54
2019-05-06T06:40:52.000Z,1021.54
2019-05-06T06:41:52.000Z,1021.57
2019-05-06T06:42:52.000Z,1021.53
2019-05-06T06:43:52.000Z,1021.53
2019-05-06T06:44:52.000Z,1021.49
2019-05-06T06:45:52.000Z,1021.49
2019-05-06T06:46:53.000Z,1021.49
2019-05-06T06:47:52.000Z,1021.44
2019-05-06T06:48:52.000Z,1021.44
2019-05-06T06:49:52.000Z,1021.39
2019-05-06T06:50:52.000Z,1021.37
2019-05-06T06:51:52.000Z,1021.36
2019-05-06T06:52:52.000Z,1021.33
2019-05-06T06:53:52.000Z,1021.40
2019-05-06T06:54:52.000Z,1021.36
2019-05-06T06:55:52.000Z,1021.38
2019-05-06T06:56:52.000Z,1021.32
2019-05-06T06:57:52.000Z,1021.38
2019-05-06T06:58:52.000Z,1021.39
2019-05-06T06:59:52.000Z,1021.34
2019-05-06T07:00:52.000Z,1021.33
2019-05-06T07:01:52.000Z,1021.38
2019-05-06T07:02:52.000Z,1021.36
2019-05-06T07:03:52.000Z,1021.32
2019-05-06T07:04:52.000Z,1021.36
2019-05-06T07:05:52.000Z,1021.40
2019-05-06T07:06:52.000Z,1021.38
2019-05-06T07:07:52.000Z,1021.38
2019-05-06T07:08:52.000Z,1021.45
2019-05-06T07:09:52.000Z,1021.42
2019-05-06T07:10:52.000Z,1021.43
2019-05-06T07:11:52.000Z,1021.41
2019-05-06T07:12:52.000Z,1021.45
2019-05-06T07:13:52.000Z,1021.43
2019-05-06T07:14:52.000Z,1021.44
2019-05-06T07:15:52.000Z,1021.44
2019-05-06T07:16:52.000Z,1021.41
2019-05-06T07:17:52.000Z,1021.44
2019-05-06T07:18:52.000Z,1021.43
2019-05-06T07:19:52.000Z,1021.44
2019-05-06T07:20:52.000Z,1021.45
2019-05-06T07:21:52.000Z,1021.47
2019-05-06T07:22:52.000Z,1021.48
2019-05-06T07:23:52.000Z,1021.51
2019-05-06T07:24:52.000Z,1021.50
2019-05-06T07:25:52.000Z,1021.46
2019-05-06T07:26:52.000Z,1021.48
2019-05-06T07:27:52.000Z,1021.49
2019-05-06T07:28:52.000Z,1021.48
2019-05-06T07:29:52.000Z,1021.46
2019-05-06T07:30:52.000Z,1021.49
2019-05-06T07:31:52.000Z,1021.50
2019-05-06T07:32:52.000Z,1021.47
2019-05-06T07:33:52.000Z,1021.47
2019-05-06T07:34:52.000Z,1021.47
2019-05-06T07:35:52.000Z,1021.48
2019-05-06T07:36:52.000Z,1021.52
2019-05-06T07:37:53.000Z,1021.50
2019-05-06T07:38:53.000Z,1021.50
2019-05-06T07:39:52.000Z,1021.54
2019-05-06T07:40:52.000Z,1021.50
2019-05-06T07:41:52.000Z,1021.50
2019-05-06T07:42:52.000Z,1021.51
2019-05-06T07:43:52.000Z,1021.53
2019-05-06T07:44:52.000Z,1021.53
2019-05-06T07:45:52.000Z,1021.47
2019-05-06T07:46:52.000Z,1021.48
2019-05-06T07:47:52.000Z,1021.49
2019-05-06T07:48:52.000Z,1021.50
2019-05-06T07:49:52.000Z,1021.48
2019-05-06T07:50:52.000Z,1021.51
2019-05-06T07:51:52.000Z,1021.51
2019-05-06T07:52:52.000Z,1021.51
2019-05-06T07:53:52.000Z,1021.49
2019-05-06T07:54:52.000Z,1021.48
2019-05-06T07:55:52.000Z,1021.47
2019-05-06T07:56:52.000Z,1021.48
2019-05-06T07:57:52.000Z,1021.45
2019-05-06T07:58:52.000Z,1021.42
2019-05-06T07:59:52.000Z,1021.48
2019-05-06T08:00:52.000Z,1021.47
2019-05-06T08:01:52.000Z,1021.49
2019-05-06T08:02:52.000Z,1021.48
2019-05-06T08:03:52.000Z,1021.47
2019-05-06T08:04:52.000Z,1021.45
2019-05-06T08:05:52.000Z,1021.47
2019-05-06T08:06:52.000Z,1021.42
2019-05-06T08:07:52.000Z,1021.44
2019-05-06T08:08:52.000Z,1021.43
2019-05-06T08:09:52.000Z,1021.47
2019-05-06T08:10:52.000Z,1021.48
2019-05-06T08:11:53.000Z,1021.47
2019-05-06T08:12:52.000Z,1021.46
2019-05-06T08:13:52.000Z,1021.47
2019-05-06T08:14:52.000Z,1021.48
2019-05-06T08:15:52.000Z,1021.48
2019-05-06T08:16:52.000Z,1021.49
2019-05-06T08:17:52.000Z,1021.51
2019-05-06T08:18:52.000Z,1021.51
2019-05-06T08:19:52.000Z,1021.48
2019-05-06T08:20:52.000Z,1021.47
2019-05-06T08:21:52.000Z,1021.44
2019-05-06T08:22:52.000Z,1021.45
2019-05-06T08:23:52.000Z,1021.41
2019-05-06T08:24:52.000Z,1021.47
2019-05-06T08:25:52.000Z,1021.45
2019-05-06T08:26:52.000Z,1021.45
2019-05-06T08:27:53.000Z,1021.46
2019-05-06T08:28:52.000Z,1021.43
2019-05-06T08:29:52.000Z,1021.38
2019-05-06T08:30:52.000Z,1021.42
2019-05-06T08:31:52.000Z,1021.37
2019-05-06T08:32:52.000Z,1021.37
2019-05-06T08:33:52.000Z,1021.39
2019-05-06T08:34:52.000Z,1021.38
2019-05-06T08:35:52.000Z,1021.39
2019-05-06T08:36:52.000Z,1021.42
2019-05-06T08:37:52.000Z,1021.41
2019-05-06T08:38:52.000Z,1021.41
2019-05-06T08:39:52.000Z,1021.42
2019-05-06T08:40:52.000Z,1021.36
2019-05-06T08:41:52.000Z,1021.40
2019-05-06T08:42:53.000Z,1021.42
2019-05-06T08:43:52.000Z,1021.40
2019-05-06T08:44:52.000Z,1021.40
2019-05-06T08:45:52.000Z,1021.40
2019-05-06T08:46:52.000Z,1021.40
2019-05-06T08:47:52.000Z,1021.42
2019-05-06T08:48:52.000Z,1021.44
2019-05-06T08:49:52.000Z,1021.38
2019-05-06T08:50:52.000Z,1021.41
2019-05-06T08:51:52.000Z,1021.43
2019-05-06T08:52:52.000Z,1021.48
2019-05-06T08:53:52.000Z,1021.41
2019-05-06T08:54:52.000Z,1021.40
2019-05-06T08:55:52.000Z,1021.36
2019-05-06T08:56:52.000Z,1021.39
2019-05-06T08:57:52.000Z,1021.33
2019-05-06T08:58:52.000Z,1021.32
2019-05-06T08:59:52.000Z,1021.30
2019-05-06T09:00:52.000Z,1021.31
2019-05-06T09:01:52.000Z,1021.28
2019-05-06T09:02:52.000Z,1021.31
2019-05-06T09:03:52.000Z,1021.26
2019-05-06T09:04:52.000Z,1021.25
2019-05-06T09:05:52.000Z,1021.22
2019-05-06T09:06:52.000Z,1021.26
2019-05-06T09:07:52.000Z,1021.26
2019-05-06T09:08:52.000Z,1021.24
2019-05-06T09:09:52.000Z,1021.28
2019-05-06T09:10:52.000Z,1021.27
2019-05-06T09:11:52.000Z,1021.25
2019-05-06T09:12:52.000Z,1021.28
2019-05-06T09:13:52.000Z,1021.31
2019-05-06T09:14:52.000Z,1021.25
2019-05-06T09:15:52.000Z,1021.20
2019-05-06T09:16:52.000Z,1021.24
2019-05-06T09:17:52.000Z,1021.21
2019-05-06T09:18:52.000Z,1021.22
2019-05-06T09:19:52.000Z,1021.18
2019-05-06T09:20:52.000Z,1021.19
2019-05-06T09:21:52.000Z,1021.24
2019-05-06T09:22:52.000Z,1021.26
2019-05-06T09:23:52.000Z,1021.28
2019-05-06T09:24:52.000Z,1021.25
2019-05-06T09:25:53.000Z,1021.31
2019-05-06T09:26:52.000Z,1021.30
2019-05-06T09:27:52.000Z,1021.30
2019-05-06T09:28:52.000Z,1021.32
2019-05-06T09:29:53.000Z,1021.30
2019-05-06T09:30:52.000Z,1021.31
2019-05-06T09:31:52.000Z,1021.33
2019-05-06T09:32:52.000Z,1021.31
2019-05-06T09:33:52.000Z,1021.29
2019-05-06T09:34:52.000Z,1021.30
2019-05-06T09:35:52.000Z,1021.35
2019-05-06T09:36:52.000Z,1021.35
2019-05-06T09:37:52.000Z,1021.33
2019-05-06T09:38:52.000Z,1021.33
2019-05-06T09:39:52.000Z,1021.33
2019-05-06T09:40:52.000Z,1021.33
2019-05-06T09:41:52.000Z,1021.31
2019-05-06T09:42:52.000Z,1021.32
2019-05-06T09:43:52.000Z,1021.36
2019-05-06T09:44:52.000Z,1021.35
2019-05-06T09:45:52.000Z,1021.35
2019-05-06T09:46:52.000Z,1021.34
2019-05-06T09:47:52.000Z,1021.32
2019-05-06T09:48:52.000Z,1021.35
2019-05-06T09:49:52.000Z,1021.32
2019-05-06T09:50:52.000Z,1021.29
2019-05-06T09:51:52.000Z,1021.34
2019-05-06T09:52:52.000Z,1021.37
2019-05-06T09:53:52.000Z,1021.34
2019-05-06T09:54:52.000Z,1021.35
2019-05-06T09:55:52.000Z,1021.34
2019-05-06T09:56:52.000Z,1021.28
2019-05-06T09:57:52.000Z,1021.29
2019-05-06T09:58:52.000Z,1021.28
2019-05-06T09:59:52.000Z,1021.26
2019-05-06T10:00:52.000Z,1021.23
2019-05-06T10:01:52.000Z,1021.21
2019-05-06T10:02:52.000Z,1021.16
2019-05-06T10:03:52.000Z,1021.13
2019-05-06T10:04:52.000Z,1021.14
2019-05-06T10:05:52.000Z,1021.11
2019-05-06T10:06:52.000Z,1021.09
2019-05-06T10:07:52.000Z,1021.13
2019-05-06T10:08:52.000Z,1021.18
2019-05-06T10:09:52.000Z,1021.19
2019-05-06T10:10:52.000Z,1021.15
2019-05-06T10:11:52.000Z,1021.14
2019-05-06T10:12:53.000Z,1021.19
2019-05-06T10:13:52.000Z,1021.20
2019-05-06T10:14:52.000Z,1021.21
2019-05-06T10:15:52.000Z,1021.22
2019-05-06T10:16:52.000Z,1021.26
2019-05-06T10:17:52.000Z,1021.24
2019-05-06T10:18:52.000Z,1021.21
2019-05-06T10:19:52.000Z,1021.22
2019-05-06T10:20:52.000Z,1021.21
2019-05-06T10:21:52.000Z,1021.16
2019-05-06T10:22:52.000Z,1021.17
2019-05-06T10:23:52.000Z,1021.18
2019-05-06T10:24:52.000Z,1021.17
2019-05-06T10:25:52.000Z,1021.16
2019-05-06T10:26:53.000Z,1021.14
2019-05-06T10:27:52.000Z,1021.13
2019-05-06T10:28:52.000Z,1021.15
2019-05-06T10:29:52.000Z,1021.14
2019-05-06T10:30:52.000Z,1021.11
2019-05-06T10:31:52.000Z,1021.10
2019-05-06T10:32:52.000Z,1021.12
2019-05-06T10:33:52.000Z,1021.05
2019-05-06T10:34:52.000Z,1021.01
2019-05-06T10:35:52.000Z,1021.01
2019-05-06T10:36:52.000Z,1021.02
2019-05-06T10:37:52.000Z,1021.00
2019-05-06T10:38:52.000Z,1021.02
2019-05-06T10:39:52.000Z,1021.01
2019-05-06T10:40:52.000Z,1021.05
2019-05-06T10:41:52.000Z,1020.98
2019-05-06T10:42:52.000Z,1021.02
2019-05-06T10:43:52.000Z,1020.97
2019-05-06T10:44:52.000Z,1020.93
2019-05-06T10:45:52.000Z,1020.90
2019-05-06T10:46:52.000Z,1020.88
2019-05-06T10:47:52.000Z,1020.88
2019-05-06T10:48:52.000Z,1020.85
2019-05-06T10:49:52.000Z,1020.88
2019-05-06T10:50:52.000Z,1020.94
2019-05-06T10:51:52.000Z,1020.89
2019-05-06T10:52:52.000Z,1020.87
2019-05-06T10:53:52.000Z,1020.93
2019-05-06T10:54:52.000Z,1020.90
2019-05-06T10:55:53.000Z,1020.89
2019-05-06T10:56:53.000Z,1020.92
2019-05-06T10:57:52.000Z,1020.90
2019-05-06T10:58:52.000Z,1020.90
2019-05-06T10:59:52.000Z,1020.90
2019-05-06T11:00:52.000Z,1020.92
2019-05-06T11:01:52.000Z,1020.90
2019-05-06T11:02:52.000Z,1020.95
2019-05-06T11:03:52.000Z,1020.90
2019-05-06T11:04:52.000Z,1020.91
2019-05-06T11:05:52.000Z,1020.93
2019-05-06T11:06:52.000Z,1020.89
2019-05-06T11:07:52.000Z,1020.94
2019-05-06T11:08:52.000Z,1020.92
2019-05-06T11:09:52.000Z,1020.93
2019-05-06T11:10:52.000Z,1020.96
2019-05-06T11:11:52.000Z,1020.91
2019-05-06T11:12:52.000Z,1020.94
2019-05-06T11:13:52.000Z,1020.94
2019-05-06T11:14:53.000Z,1020.88
2019-05-06T11:15:52.000Z,1020.85
2019-05-06T11:16:52.000Z,1020.85
2019-05-06T11:17:53.000Z,1020.86
2019-05-06T11:18:52.000Z,1020.89
2019-05-06T11:19:52.000Z,1020.91
2019-05-06T11:20:52.000Z,1020.85
2019-05-06T11:21:52.000Z,1020.90
2019-05-06T11:22:52.000Z,1020.82
2019-05-06T11:23:52.000Z,1020.83
2019-05-06T11:24:52.000Z,1020.84
2019-05-06T11:25:52.000Z,1020.84
2019-05-06T11:26:52.000Z,1020.85
2019-05-06T11:27:52.000Z,1020.86
2019-05-06T11:28:52.000Z,1020.84
2019-05-06T11:29:52.000Z,1020.85
2019-05-06T11:30:52.000Z,1020.84
2019-05-06T11:31:52.000Z,1020.79
2019-05-06T11:32:52.000Z,1020.81
2019-05-06T11:33:52.000Z,1020.86
2019-05-06T11:34:52.000Z,1020.85
2019-05-06T11:35:52.000Z,1020.84
2019-05-06T11:36:52.000Z,1020.86
2019-05-06T11:37:52.000Z,1020.84
2019-05-06T11:38:53.000Z,1020.87
2019-05-06T11:39:52.000Z,1020.83
2019-05-06T11:40:52.000Z,1020.84
2019-05-06T11:41:52.000Z,1020.80
2019-05-06T11:42:52.000Z,1020.82
2019-05-06T11:43:52.000Z,1020.81
2019-05-06T11:44:52.000Z,1020.82
2019-05-06T11:45:52.000Z,1020.79
2019-05-06T11:46:52.000Z,1020.80
2019-05-06T11:47:52.000Z,1020.81
2019-05-06T11:48:52.000Z,1020.78
2019-05-06T11:49:52.000Z,1020.75
2019-05-06T11:50:52.000Z,1020.75
2019-05-06T11:51:52.000Z,1020.77
2019-05-06T11:52:52.000Z,1020.73
2019-05-06T11:53:52.000Z,1020.75
2019-05-06T11:54:52.000Z,1020.77
2019-05-06T11:55:52.000Z,1020.71
2019-05-06T11:56:52.000Z,1020.71
2019-05-06T11:57:52.000Z,1020.71
2019-05-06T11:58:52.000Z,1020.73
2019-05-06T11:59:52.000Z,1020.72
2019-05-06T12:00:52.000Z,1020.71
2019-05-06T12:01:52.000Z,1020.68
2019-05-06T12:02:52.000Z,1020.66
2019-05-06T12:03:52.000Z,1020.64
2019-05-06T12:04:52.000Z,1020.58
2019-05-06T12:05:52.000Z,1020.60